Time;durP1;ratioP1;P1;durP2;ratioP2;P2;SDS_P1;SDS_P2;PMS_P1;PMS_P2;Temp;Humidity;BMP_temperature;BMP_pressure;BME280_temperature;BME280_humidity;BME280_pressure;Samples;Min_cycle;Max_cycle;Signal;HPM_P1;HPM_P2
2022/10/04 00:02:11;;;;;;;;;;;;;;;9.69;100.00;102439.13;5290904;22;20106;-79
2022/10/04 00:04:46;;;;;;;14.20;5.47;;;;;;;9.65;100.00;102434.94;5052656;28;19916;-81
2022/10/04 00:07:12;;;;;;;12.77;5.90;;;;;;;9.60;100.00;102432.56;5052802;28;20758;-82
2022/10/04 00:09:51;;;;;;;14.73;6.20;;;;;;;9.58;100.00;102428.28;5052116;28;20115;-81
2022/10/04 00:12:29;;;;;;;16.98;6.00;;;;;;;9.58;100.00;102436.25;5052506;28;20369;-82
2022/10/04 00:14:59;;;;;;;15.05;6.30;;;;;;;9.56;100.00;102433.69;5052393;28;20072;-81
2022/10/04 00:17:30;;;;;;;14.88;6.15;;;;;;;9.55;100.00;102423.16;5052706;28;20452;-80
2022/10/04 00:19:57;;;;;;;12.75;6.40;;;;;;;9.56;100.00;102417.75;5053069;28;20025;-81
2022/10/04 00:22:25;;;;;;;13.30;5.05;;;;;;;9.55;100.00;102424.00;5053159;28;20109;-82
2022/10/04 00:25:06;;;;;;;14.40;5.95;;;;;;;9.51;100.00;102419.84;5052604;28;20025;-82
2022/10/04 00:27:33;;;;;;;12.20;5.72;;;;;;;9.44;100.00;102422.00;5052746;28;20147;-81
2022/10/04 00:30:01;;;;;;;14.88;6.38;;;;;;;9.43;100.00;102424.75;5052021;28;20025;-81
2022/10/04 00:32:28;;;;;;;12.23;5.80;;;;;;;9.38;100.00;102424.19;5051848;28;20028;-82
2022/10/04 00:34:55;;;;;;;12.27;5.65;;;;;;;9.34;100.00;102431.47;5052341;28;20040;-80
2022/10/04 00:37:24;;;;;;;16.50;6.35;;;;;;;9.29;100.00;102441.53;5052266;28;20303;-81
2022/10/04 00:40:00;;;;;;;16.70;6.40;;;;;;;9.28;100.00;102439.81;5052055;28;20044;-81
2022/10/04 00:42:52;;;;;;;14.63;6.07;;;;;;;9.22;100.00;102427.75;5052464;28;20025;-81
2022/10/04 00:45:23;;;;;;;16.50;5.65;;;;;;;9.14;100.00;102422.91;5051664;28;20426;-80
2022/10/04 00:47:48;;;;;;;;;;;;;;;9.11;100.00;102417.78;5052418;28;20465;-81
2022/10/04 00:50:31;;;;;;;13.32;6.35;;;;;;;9.09;100.00;102419.69;5051433;28;20015;-82
2022/10/04 00:53:01;;;;;;;12.68;6.63;;;;;;;9.05;100.00;102412.81;5052351;28;20481;-81
2022/10/04 00:55:34;;;;;;;14.45;6.38;;;;;;;9.02;100.00;102404.16;5051994;28;20032;-82
2022/10/04 00:58:03;;;;;;;13.35;7.05;;;;;;;9.03;100.00;102403.22;5051736;28;20044;-80
2022/10/04 01:00:34;;;;;;;13.70;6.80;;;;;;;8.98;100.00;102409.66;5051532;28;20055;-80
2022/10/04 01:03:11;;;;;;;16.40;7.15;;;;;;;8.94;100.00;102400.19;5051622;28;20049;-81
2022/10/04 01:05:41;;;;;;;10.20;5.43;;;;;;;8.88;100.00;102397.03;5051301;28;20033;-81
2022/10/04 01:08:12;;;;;;;9.80;5.55;;;;;;;8.80;100.00;102392.19;5050444;28;20056;-81
2022/10/04 01:10:45;;;;;;;13.53;7.00;;;;;;;8.76;100.00;102394.16;5051712;28;20099;-82
2022/10/04 01:13:16;;;;;;;17.95;6.70;;;;;;;8.74;100.00;102392.53;5051451;28;20381;-81
2022/10/04 01:16:11;;;;;;;12.38;5.93;;;;;;;8.69;100.00;102402.53;5051228;28;20070;-81
2022/10/04 01:18:37;;;;;;;17.17;7.68;;;;;;;8.65;100.00;102388.63;5051740;28;20465;-80
2022/10/04 01:21:22;;;;;;;20.10;7.82;;;;;;;8.61;100.00;102384.41;5051370;28;20037;-81
2022/10/04 01:24:10;;;;;;;24.50;9.43;;;;;;;8.64;100.00;102385.13;5051606;28;20107;-81
2022/10/04 01:26:40;;;;;;;16.88;8.18;;;;;;;8.65;100.00;102385.97;5050683;28;20179;-80
2022/10/04 01:29:27;;;;;;;13.77;8.45;;;;;;;8.68;100.00;102379.63;5051203;28;20135;-82
2022/10/04 01:31:55;;;;;;;20.30;8.20;;;;;;;8.68;100.00;102376.97;5051853;28;20057;-81
2022/10/04 01:34:23;;;;;;;15.55;7.93;;;;;;;8.63;100.00;102358.66;5051291;28;20394;-80
2022/10/04 01:36:50;;;;;;;20.83;9.52;;;;;;;8.63;100.00;102358.66;5050869;28;20120;-80
2022/10/04 01:39:18;;;;;;;16.83;8.43;;;;;;;8.67;100.00;102354.03;5051199;28;20084;-81
2022/10/04 01:42:00;;;;;;;16.52;9.18;;;;;;;8.65;100.00;102347.00;5049706;28;20454;-81
2022/10/04 01:45:04;;;;;;;16.10;7.88;;;;;;;8.65;100.00;102340.84;5050419;28;20033;-80
2022/10/04 01:47:33;;;;;;;14.55;7.38;;;;;;;8.62;100.00;102333.06;5039921;28;20037;-81
2022/10/04 01:50:04;;;;;;;15.40;7.80;;;;;;;8.63;100.00;102330.31;5050546;28;20033;-81
2022/10/04 01:52:34;;;;;;;;;;;;;;;8.64;100.00;102328.50;5051412;28;20101;-81
2022/10/04 01:55:05;;;;;;;20.65;9.48;;;;;;;8.65;100.00;102315.16;5050665;28;19917;-81
2022/10/04 01:57:38;;;;;;;14.27;8.23;;;;;;;8.67;100.00;102304.44;5050687;28;20132;-82
2022/10/04 02:00:11;;;;;;;18.75;9.20;;;;;;;8.69;100.00;102293.75;5050669;28;20124;-80
2022/10/04 02:02:50;;;;;;;20.95;9.45;;;;;;;8.72;100.00;102298.88;5050115;28;20049;-81
2022/10/04 02:05:25;;;;;;;15.57;8.82;;;;;;;8.69;100.00;102289.31;5050676;28;20043;-82
2022/10/04 02:07:53;;;;;;;22.60;9.88;;;;;;;8.68;100.00;102287.59;5050363;28;20040;-81
2022/10/04 02:10:22;;;;;;;24.98;9.57;;;;;;;8.65;100.00;102272.69;5050278;28;20061;-81
2022/10/04 02:12:49;;;;;;;16.38;9.85;;;;;;;8.62;100.00;102270.22;5050180;28;20437;-81
2022/10/04 02:15:17;;;;;;;19.25;9.70;;;;;;;8.56;100.00;102264.44;5050323;28;20445;-81
2022/10/04 02:17:43;;;;;;;15.40;9.07;;;;;;;8.50;100.00;102262.16;5049864;28;20070;-81
2022/10/04 02:20:14;;;;;;;15.18;8.45;;;;;;;8.43;100.00;102267.81;5050073;28;20420;-80
2022/10/04 02:22:42;;;;;;;19.25;9.05;;;;;;;8.36;100.00;102254.97;5048836;28;20029;-80
2022/10/04 02:25:08;;;;;;;14.32;8.95;;;;;;;8.31;100.00;102260.53;5049766;28;20460;-81
2022/10/04 02:27:33;;;;;;;18.00;9.95;;;;;;;8.28;100.00;102269.56;5049815;28;20037;-80
2022/10/04 02:30:25;;;;;;;16.48;8.70;;;;;;;8.23;100.00;102262.81;5049762;28;20441;-83
2022/10/04 02:32:57;;;;;;;20.02;9.98;;;;;;;8.17;100.00;102261.34;5034131;28;20045;-82
2022/10/04 02:35:34;;;;;;;22.73;11.48;;;;;;;8.14;100.00;102256.22;5049997;28;20107;-80
2022/10/04 02:38:11;;;;;;;24.60;11.75;;;;;;;8.15;100.00;102249.13;5049715;28;20044;-81
2022/10/04 02:40:49;;;;;;;32.60;13.82;;;;;;;8.12;100.00;102232.47;5049487;28;20140;-81
2022/10/04 02:43:22;;;;;;;28.27;11.70;;;;;;;8.11;100.00;102222.78;5049432;28;20075;-80
2022/10/04 02:45:52;;;;;;;26.20;13.07;;;;;;;8.12;100.00;102224.50;5049713;28;20341;-81
2022/10/04 02:48:25;;;;;;;18.48;9.27;;;;;;;8.09;100.00;102226.47;5049950;28;20406;-80
2022/10/04 02:50:53;;;;;;;23.58;10.63;;;;;;;8.05;100.00;102230.25;5049212;28;20036;-80
2022/10/04 02:53:32;;;;;;;24.60;13.27;;;;;;;8.01;100.00;102237.50;5049732;28;20045;-80
2022/10/04 02:55:57;;;;;;;22.05;11.90;;;;;;;7.98;100.00;102234.19;5049344;28;20029;-81
2022/10/04 02:58:24;;;;;;;22.50;11.57;;;;;;;7.97;100.00;102229.84;5049456;28;20040;-80
2022/10/04 03:00:55;;;;;;;26.02;11.18;;;;;;;7.94;100.00;102223.78;5050352;28;20112;-80
2022/10/04 03:03:29;;;;;;;24.50;11.10;;;;;;;7.93;100.00;102218.56;5050689;28;20049;-81
2022/10/04 03:06:04;;;;;;;20.35;11.18;;;;;;;7.91;100.00;102212.47;5050095;28;20060;-81
2022/10/04 03:08:52;;;;;;;25.67;12.57;;;;;;;7.89;100.00;102207.28;5050922;28;20194;-81
2022/10/04 03:11:21;;;;;;;15.82;10.07;;;;;;;7.90;100.00;102214.28;5050666;28;20025;-81
2022/10/04 03:13:53;;;;;;;19.48;11.70;;;;;;;7.88;100.00;102202.06;5049100;28;20448;-80
2022/10/04 03:16:20;;;;;;;24.42;12.52;;;;;;;7.84;100.00;102198.75;5049214;28;20426;-81
2022/10/04 03:18:47;;;;;;;22.00;12.50;;;;;;;7.84;100.00;102193.44;5049041;28;20442;-79
2022/10/04 03:21:16;;;;;;;27.77;13.43;;;;;;;7.91;100.00;102191.28;5048987;28;20032;-79
2022/10/04 03:23:42;;;;;;;26.83;14.13;;;;;;;7.98;100.00;102183.84;5048901;28;20045;-80
2022/10/04 03:26:16;;;;;;;38.58;17.88;;;;;;;8.10;100.00;102178.66;5048891;28;20178;-82
2022/10/04 03:28:42;;;;;;;30.23;16.33;;;;;;;8.18;100.00;102174.72;5048914;28;20033;-81
2022/10/04 03:31:08;;;;;;;34.80;17.67;;;;;;;8.23;100.00;102186.75;5064042;28;20063;-81
2022/10/04 03:33:34;;;;;;;37.40;16.05;;;;;;;8.28;100.00;102175.88;5048926;28;20107;-81
2022/10/04 03:36:00;;;;;;;33.58;16.45;;;;;;;8.30;100.00;102174.00;5063804;28;20453;-80
2022/10/04 03:38:27;;;;;;;33.63;17.42;;;;;;;8.30;100.00;102174.84;5030552;28;20339;-80
2022/10/04 03:40:56;;;;;;;32.58;16.38;;;;;;;8.30;100.00;102176.66;5048774;28;20071;-81
2022/10/04 03:43:25;;;;;;;33.55;16.17;;;;;;;8.29;100.00;102180.25;5048740;28;20032;-81
2022/10/04 03:45:51;;;;;;;31.60;16.85;;;;;;;8.26;100.00;102186.56;5048408;28;20037;-81
2022/10/04 03:48:27;;;;;;;26.73;15.32;;;;;;;8.22;100.00;102186.84;5048526;28;20346;-81
2022/10/04 03:50:53;;;;;;;29.30;15.52;;;;;;;8.17;100.00;102184.47;5048712;28;20079;-80
2022/10/04 03:53:34;;;;;;;29.23;15.25;;;;;;;8.14;100.00;102192.59;5048887;28;20040;-81
2022/10/04 03:56:01;;;;;;;37.17;17.30;;;;;;;8.10;100.00;102183.97;5048896;28;20025;-81
2022/10/04 03:58:30;;;;;;;38.05;17.00;;;;;;;8.09;100.00;102181.41;5048601;28;20279;-81
2022/10/04 04:00:59;;;;;;;34.50;16.88;;;;;;;8.07;100.00;102189.44;5048784;28;20098;-80
2022/10/04 04:03:28;;;;;;;30.15;17.13;;;;;;;8.06;100.00;102181.59;5048237;28;20089;-82
2022/10/04 04:05:58;;;;;;;31.65;17.48;;;;;;;8.07;100.00;102176.19;5048532;28;20140;-81
2022/10/04 04:08:24;;;;;;;32.08;17.42;;;;;;;8.10;100.00;102177.81;5050366;28;20066;-81
2022/10/04 04:10:52;;;;;;;35.25;18.35;;;;;;;8.10;100.00;102172.50;5052218;28;20399;-81
2022/10/04 04:13:39;;;;;;;38.38;18.35;;;;;;;8.11;100.00;102172.41;5052090;28;20051;-81
2022/10/04 04:16:05;;;;;;;37.00;17.77;;;;;;;8.10;100.00;102177.81;5052317;28;20056;-80
2022/10/04 04:18:37;;;;;;;29.42;16.00;;;;;;;8.07;100.00;102173.53;5052417;28;20489;-81
2022/10/04 04:21:05;;;;;;;34.13;17.75;;;;;;;8.04;100.00;102172.88;5052154;28;20025;-81
2022/10/04 04:23:36;;;;;;;29.80;14.45;;;;;;;8.00;100.00;102174.00;5052327;28;20074;-81
2022/10/04 04:26:41;;;;;;;38.35;18.48;;;;;;;7.96;100.00;102178.63;5052126;28;20029;-81
2022/10/04 04:29:06;;;;;;;29.95;15.27;;;;;;;7.95;100.00;102174.25;5051929;28;20032;-81
2022/10/04 04:31:31;;;;;;;30.90;16.17;;;;;;;7.93;100.00;102171.69;5051972;28;20080;-81
2022/10/04 04:33:59;;;;;;;38.63;18.15;;;;;;;7.93;100.00;102176.16;5051795;28;20021;-81
2022/10/04 04:36:27;;;;;;;31.13;16.40;;;;;;;7.93;100.00;102174.34;5051303;28;20330;-80
2022/10/04 04:41:57;;;;;;;34.72;17.23;;;;;;;8.03;100.00;102177.34;5009241;28;20061;-78
2022/10/04 04:44:23;;;;;;;42.78;18.42;;;;;;;8.04;100.00;102178.19;5009400;28;20559;-79
2022/10/04 04:46:49;;;;;;;28.05;15.98;;;;;;;8.06;100.00;102176.28;5029616;28;20480;-78
2022/10/04 04:49:16;;;;;;;36.63;17.67;;;;;;;8.07;100.00;102178.84;5050898;28;20056;-80
2022/10/04 04:51:49;;;;;;;29.40;16.42;;;;;;;8.09;100.00;102187.56;5052129;28;20112;-79
2022/10/04 04:54:16;;;;;;;40.80;17.20;;;;;;;8.09;100.00;102179.63;5052204;28;20029;-80
2022/10/04 04:56:43;;;;;;;32.33;15.85;;;;;;;8.07;100.00;102178.84;5051757;28;20112;-79
2022/10/04 04:59:10;;;;;;;27.88;15.30;;;;;;;8.08;100.00;102171.75;5052058;28;20045;-79
2022/10/04 05:01:47;;;;;;;33.00;16.13;;;;;;;8.07;100.00;102172.69;5051990;28;20033;-81
2022/10/04 05:04:12;;;;;;;36.10;16.63;;;;;;;8.07;100.00;102167.38;5051867;28;20057;-81
2022/10/04 05:06:41;;;;;;;28.95;14.82;;;;;;;8.04;100.00;102171.06;5051992;28;20044;-81
2022/10/04 05:09:22;;;;;;;28.95;14.65;;;;;;;8.03;100.00;102160.56;5051666;28;20029;-80
2022/10/04 05:11:50;;;;;;;27.98;14.45;;;;;;;8.02;100.00;102167.66;5052117;28;20033;-80
2022/10/04 05:14:16;;;;;;;28.60;13.88;;;;;;;8.02;100.00;102174.78;5051817;28;20089;-80
2022/10/04 05:16:49;;;;;;;31.98;14.80;;;;;;;8.01;100.00;102179.19;5051634;28;20036;-80
2022/10/04 05:19:23;;;;;;;30.17;14.43;;;;;;;8.01;100.00;102173.91;5051255;28;20461;-78
2022/10/04 05:21:52;;;;;;;28.38;13.57;;;;;;;7.95;100.00;102166.31;5051701;28;20480;-80
2022/10/04 05:24:17;;;;;;;35.22;14.48;;;;;;;7.90;100.00;102160.44;5051563;28;20028;-80
2022/10/04 05:26:43;;;;;;;35.28;14.25;;;;;;;7.84;100.00;102163.44;5051174;28;20484;-80
2022/10/04 05:29:20;;;;;;;28.30;13.52;;;;;;;7.79;100.00;102150.44;5049693;28;20044;-81
2022/10/04 05:32:04;;;;;;;42.97;16.08;;;;;;;7.77;100.00;102155.00;5051325;28;20033;-79
2022/10/04 05:34:36;;;;;;;36.30;14.65;;;;;;;7.75;100.00;102144.47;5050731;28;20044;-79
2022/10/04 05:37:29;;;;;;;31.08;14.93;;;;;;;7.72;100.00;102141.16;5050874;28;20029;-79
2022/10/04 05:39:55;;;;;;;30.08;14.82;;;;;;;7.69;100.00;102134.25;5050676;28;20116;-80
2022/10/04 05:42:37;;;;;;;26.30;13.32;;;;;;;7.66;100.00;102137.06;5050794;28;20069;-80
2022/10/04 05:45:12;;;;;;;42.22;15.15;;;;;;;7.62;100.00;102135.53;5050399;28;20098;-80
2022/10/04 05:47:41;;;;;;;33.70;15.35;;;;;;;7.59;100.00;102131.25;5050707;28;20109;-81
2022/10/04 05:50:15;;;;;;;29.42;14.63;;;;;;;7.54;100.00;102127.19;5050347;28;20126;-79
2022/10/04 05:52:42;;;;;;;28.95;15.10;;;;;;;7.49;100.00;102123.94;5050496;28;20033;-80
2022/10/04 05:55:16;;;;;;;40.72;16.02;;;;;;;7.48;100.00;102128.38;5050818;28;20025;-80
2022/10/04 05:57:54;;;;;;;39.50;16.67;;;;;;;7.47;100.00;102128.47;5050459;28;20131;-80
2022/10/04 06:00:20;;;;;;;37.47;17.17;;;;;;;7.46;100.00;102127.59;5049756;28;20140;-80
2022/10/04 06:03:02;;;;;;;37.30;17.77;;;;;;;7.47;100.00;102131.97;5065188;28;20128;-79
2022/10/04 06:05:42;;;;;;;41.17;18.05;;;;;;;7.52;100.00;102119.28;5049953;28;20025;-80
2022/10/04 06:08:23;;;;;;;39.33;18.10;;;;;;;7.58;100.00;102115.44;5049661;28;20029;-79
2022/10/04 06:11:12;;;;;;;40.80;17.98;;;;;;;7.61;100.00;102106.47;5049560;28;20450;-80
2022/10/04 06:14:16;;;;;;;36.08;16.60;;;;;;;7.62;100.00;102117.00;5049959;28;20103;-80
2022/10/04 06:17:20;;;;;;;40.20;16.58;;;;;;;7.63;100.00;102116.06;5040530;28;20060;-80
2022/10/04 06:20:01;;;;;;;37.22;17.70;;;;;;;7.67;100.00;102114.06;5018093;28;20421;-80
2022/10/04 06:22:26;;;;;;;33.13;16.75;;;;;;;7.67;100.00;102109.63;5049654;28;20045;-80
2022/10/04 06:24:59;;;;;;;41.47;16.92;;;;;;;7.69;100.00;102112.19;5049770;28;20029;-80
2022/10/04 06:27:31;;;;;;;32.40;15.65;;;;;;;7.70;100.00;102119.19;5048373;28;20112;-80
2022/10/04 06:30:17;;;;;;;43.38;17.27;;;;;;;7.71;100.00;102119.09;5049878;28;20089;-78
2022/10/04 06:33:24;;;;;;;44.90;16.98;;;;;;;7.71;100.00;102111.16;5049533;28;20484;-78
2022/10/04 06:36:00;;;;;;;39.25;16.67;;;;;;;7.77;100.00;102110.78;5026446;28;20454;-79
2022/10/04 06:38:45;;;;;;;40.13;17.20;;;;;;;7.82;100.00;102107.03;5049639;28;20414;-79
2022/10/04 06:41:20;;;;;;;39.42;17.63;;;;;;;7.88;100.00;102104.88;5049854;28;20033;-77
2022/10/04 06:44:23;;;;;;;39.65;18.05;;;;;;;7.92;100.00;102109.03;5049830;28;20080;-81
2022/10/04 06:46:53;;;;;;;35.60;18.35;;;;;;;8.02;100.00;102106.69;5049559;28;20087;-80
2022/10/04 06:49:56;;;;;;;44.58;18.50;;;;;;;8.10;100.00;102108.88;5049390;28;20426;-81
2022/10/04 06:52:38;;;;;;;40.10;18.88;;;;;;;8.17;100.00;102102.28;5049909;28;20133;-79
2022/10/04 06:55:38;;;;;;;35.10;17.70;;;;;;;8.26;100.00;102109.66;5050172;28;20025;-80
2022/10/04 06:58:22;;;;;;;36.60;17.33;;;;;;;8.36;100.00;102111.75;5050266;28;20080;-80
2022/10/04 07:00:58;;;;;;;36.85;18.48;;;;;;;8.45;100.00;102117.41;5050484;28;20114;-79
2022/10/04 07:03:27;;;;;;;33.58;17.38;;;;;;;8.56;100.00;102122.03;5049802;28;20057;-79
2022/10/04 07:06:00;;;;;;;34.78;16.77;;;;;;;8.66;100.00;102127.63;5050423;28;20112;-79
2022/10/04 07:08:40;;;;;;;36.20;18.00;;;;;;;8.78;100.00;102126.03;5049917;28;20404;-79
2022/10/04 07:11:12;;;;;;;37.22;15.40;;;;;;;8.91;100.00;102120.78;5049956;28;20025;-79
2022/10/04 07:13:43;;;;;;;35.25;16.50;;;;;;;9.02;100.00;102125.41;5050036;28;20032;-79
2022/10/04 07:16:15;;;;;;;28.92;15.45;;;;;;;9.14;100.00;102128.13;5049984;28;20028;-77
2022/10/04 07:18:50;;;;;;;;;;;;;;;9.25;100.00;102121.28;5050020;28;20093;-78
2022/10/04 07:21:16;;;;;;;27.48;13.95;;;;;;;9.33;100.00;102127.81;5050227;28;19909;-82
2022/10/04 07:23:50;;;;;;;38.92;15.90;;;;;;;9.46;100.00;102133.16;5049885;28;20033;-80
2022/10/04 07:26:32;;;;;;;28.52;14.23;;;;;;;9.56;100.00;102128.13;5050704;28;20091;-81
2022/10/04 07:29:19;;;;;;;30.02;13.52;;;;;;;9.69;100.00;102122.84;5049820;28;20040;-82
2022/10/04 07:31:50;;;;;;;22.73;12.27;;;;;;;9.86;100.00;102124.38;5049864;28;20131;-80
2022/10/04 07:34:25;;;;;;;23.23;11.38;;;;;;;10.06;100.00;102129.19;5048982;28;20414;-81
2022/10/04 07:36:57;;;;;;;20.73;10.93;;;;;;;10.35;100.00;102133.50;5049090;28;20424;-84
2022/10/04 07:39:22;;;;;;;;;;;;;;;10.53;100.00;102136.69;5049464;28;20104;-80
2022/10/04 07:42:29;;;;;;;22.00;10.90;;;;;;;10.77;100.00;102132.28;5049047;28;19955;-79
2022/10/04 07:45:02;;;;;;;20.77;9.88;;;;;;;10.98;100.00;102136.22;5052972;28;20083;-80
2022/10/04 07:47:28;;;;;;;20.50;9.48;;;;;;;11.07;100.00;102138.22;5051493;28;20440;-79
2022/10/04 07:49:54;;;;;;;22.73;10.75;;;;;;;11.10;100.00;102130.84;5053073;28;20092;-79
2022/10/04 07:52:35;;;;;;;20.55;10.45;;;;;;;11.19;100.00;102131.16;5053143;28;20071;-79
2022/10/04 07:55:27;;;;;;;17.08;9.93;;;;;;;11.23;100.00;102132.63;5052551;28;20127;-80
2022/10/04 07:58:15;;;;;;;24.90;9.55;;;;;;;11.28;100.00;102131.31;5052627;28;20437;-82
2022/10/04 08:01:33;;;;;;;17.40;9.82;;;;;;;11.41;100.00;102136.59;5052306;28;20437;-82
2022/10/04 08:04:04;;;;;;;24.98;9.43;;;;;;;11.41;100.00;102133.94;5026235;28;20060;-80
2022/10/04 08:06:55;;;;;;;22.23;10.45;;;;;;;11.42;100.00;102132.13;5052478;28;20048;-79
2022/10/04 08:09:40;;;;;;;18.25;9.30;;;;;;;11.75;100.00;102125.28;5067304;28;20124;-79
2022/10/04 08:12:36;;;;;;;14.60;8.73;;;;;;;12.26;100.00;102116.09;5052606;28;20029;-80
2022/10/04 08:15:12;;;;;;;12.20;7.60;;;;;;;13.08;100.00;102113.16;5052312;28;20131;-80
2022/10/04 08:17:52;;;;;;;11.15;7.93;;;;;;;13.55;100.00;102112.94;5052239;28;20100;-80
2022/10/04 08:20:31;;;;;;;26.60;9.40;;;;;;;14.08;100.00;102112.06;5050908;28;20127;-81
2022/10/04 08:23:05;;;;;;;15.93;8.85;;;;;;;14.27;100.00;102108.63;5052333;28;20205;-80
2022/10/04 08:25:51;;;;;;;17.08;9.68;;;;;;;13.86;100.00;102102.34;5050653;28;20473;-79
2022/10/04 08:31:38;;;;;;;13.50;9.38;;;;;;;13.34;100.00;102096.84;5052344;28;20121;-81
2022/10/04 08:34:44;;;;;;;20.23;9.63;;;;;;;13.08;100.00;102098.94;5051933;28;20041;-79
2022/10/04 08:37:23;;;;;;;24.83;10.98;;;;;;;12.99;100.00;102108.56;5053070;28;20024;-80
2022/10/04 08:40:07;;;;;;;43.72;11.75;;;;;;;13.04;100.00;102106.38;5052325;28;20033;-81
2022/10/04 08:42:53;;;;;;;18.17;9.20;;;;;;;13.27;100.00;102114.31;5052548;28;20179;-81
2022/10/04 08:45:56;;;;;;;16.48;8.65;;;;;;;14.59;100.00;102110.38;5052746;28;20100;-81
2022/10/04 08:49:02;;;;;;;12.07;8.48;;;;;;;16.96;98.08;102111.84;5053269;28;20027;-82
2022/10/04 08:52:06;;;;;;;14.43;8.45;;;;;;;18.59;80.64;102118.75;5052353;28;20414;-83
2022/10/04 08:55:00;;;;;;;12.55;8.05;;;;;;;19.98;72.02;102109.28;5051679;28;20043;-82
2022/10/04 08:57:32;;;;;;;44.63;9.52;;;;;;;20.65;63.17;102110.81;5051864;28;20481;-82
2022/10/04 09:00:07;;;;;;;14.48;7.82;;;;;;;20.62;59.68;102105.75;5067407;28;20479;-83
2022/10/04 09:03:00;;;;;;;18.42;7.43;;;;;;;20.94;59.24;102102.09;5052029;28;20063;-81
2022/10/04 09:05:52;;;;;;;15.15;7.47;;;;;;;21.07;58.63;102109.63;5051949;28;20036;-78
2022/10/04 09:08:26;;;;;;;10.32;7.38;;;;;;;21.64;57.27;102104.88;5052101;28;20418;-82
2022/10/04 09:11:17;;;;;;;14.10;7.10;;;;;;;21.82;56.61;102105.38;5051950;28;20035;-81
2022/10/04 09:13:42;;;;;;;16.35;8.23;;;;;;;22.08;54.43;102105.97;5052247;28;20059;-77
2022/10/04 09:16:07;;;;;;;15.40;7.38;;;;;;;22.49;53.24;102102.88;5051761;28;20025;-80
2022/10/04 09:18:50;;;;;;;12.48;7.35;;;;;;;22.76;52.51;102095.06;5052415;28;20457;-83
2022/10/04 09:21:21;;;;;;;13.23;7.45;;;;;;;23.07;52.37;102086.66;5051793;28;20028;-83
2022/10/04 09:24:08;;;;;;;12.57;7.57;;;;;;;22.42;53.21;102080.25;5052744;28;20025;-87
2022/10/04 09:26:51;;;;;;;11.15;7.25;;;;;;;22.76;52.35;102070.66;5051450;28;20044;-82
2022/10/04 09:29:32;;;;;;;10.80;6.82;;;;;;;22.60;50.55;102069.84;5052812;28;20064;-87
2022/10/04 09:32:58;;;;;;;12.15;7.03;;;;;;;20.71;55.06;102064.19;5068146;28;20029;-87
2022/10/04 09:35:28;;;;;;;11.00;6.60;;;;;;;19.42;63.19;102051.56;4970322;28;20118;-82
2022/10/04 09:38:39;;;;;;;19.30;7.80;;;;;;;18.16;70.76;102061.28;5039310;28;20041;-80
2022/10/04 09:41:10;;;;;;;15.90;8.10;;;;;;;16.97;78.93;102073.19;5052929;28;20489;-83
2022/10/04 09:44:15;;;;;;;20.20;8.52;;;;;;;17.12;82.12;102084.28;5051832;28;20071;-80
2022/10/04 09:47:18;;;;;;;12.82;8.65;;;;;;;18.40;74.75;102084.81;5051834;28;20040;-82
2022/10/04 09:50:17;;;;;;;9.13;7.18;;;;;;;19.84;70.56;102088.38;5051501;28;20462;-81
2022/10/04 09:53:01;;;;;;;13.90;6.88;;;;;;;21.00;60.55;102089.72;5050182;28;20032;-79
2022/10/04 09:56:05;;;;;;;13.88;7.53;;;;;;;20.50;60.96;102088.25;5051182;28;20135;-78
2022/10/04 09:58:45;;;;;;;10.95;7.43;;;;;;;18.90;67.21;102087.72;5050099;28;20108;-76
2022/10/04 10:01:28;;;;;;;15.00;7.88;;;;;;;17.89;71.08;102073.03;5051592;28;20372;-79
2022/10/04 10:04:24;;;;;;;11.32;6.93;;;;;;;17.87;74.76;102083.94;5051168;28;20102;-76
2022/10/04 10:07:07;;;;;;;14.13;7.40;;;;;;;18.56;69.65;102084.03;5050433;28;20473;-79
2022/10/04 10:15:59;;;;;;;14.18;7.25;;;;;;;17.61;74.71;102081.22;5050826;28;20353;-77
2022/10/04 10:18:50;;;;;;;14.07;6.82;;;;;;;17.54;75.29;102081.00;5050734;28;20139;-77
2022/10/04 10:21:20;;;;;;;16.23;6.95;;;;;;;17.55;77.53;102073.75;5066486;28;20331;-80
2022/10/04 10:24:03;;;;;;;14.30;6.82;;;;;;;17.48;78.88;102070.00;5051426;28;20091;-79
2022/10/04 10:26:44;;;;;;;11.90;6.30;;;;;;;17.32;75.54;102062.66;5066402;28;20098;-82
2022/10/04 10:29:24;;;;;;;14.02;6.80;;;;;;;17.17;75.77;102060.47;5051176;28;20099;-79
2022/10/04 10:32:09;;;;;;;15.60;6.70;;;;;;;17.02;78.70;102054.78;5050705;28;20033;-79
2022/10/04 10:34:51;;;;;;;14.68;6.85;;;;;;;16.71;77.64;102052.38;5049273;28;20055;-77
2022/10/04 10:37:39;;;;;;;10.98;6.97;;;;;;;16.44;81.19;102057.78;5050604;28;20092;-81
2022/10/04 10:40:44;;;;;;;12.80;6.65;;;;;;;16.50;80.36;102044.59;5050674;28;20409;-80
2022/10/04 10:43:37;;;;;;;10.77;6.10;;;;;;;16.48;82.92;102067.22;5050530;28;20025;-79
2022/10/04 10:46:18;;;;;;;10.40;6.18;;;;;;;16.39;82.16;102067.13;5050673;28;20036;-81
2022/10/04 10:48:56;;;;;;;10.25;5.82;;;;;;;16.52;80.54;102052.50;5050382;28;20100;-82
2022/10/04 10:51:25;;;;;;;12.55;6.43;;;;;;;16.63;81.77;102060.38;5050954;28;20029;-82
2022/10/04 10:54:16;;;;;;;11.93;5.72;;;;;;;16.92;82.23;102046.78;5050483;28;20025;-79
2022/10/04 10:56:48;;;;;;;8.85;4.43;;;;;;;17.35;78.37;102046.19;5049796;28;20393;-82
2022/10/04 10:59:14;;;;;;;8.80;4.45;;;;;;;17.42;72.54;102041.84;5049389;28;20029;-80
2022/10/04 11:01:43;;;;;;;9.48;4.57;;;;;;;17.32;70.06;102050.03;5050061;28;20082;-80
2022/10/04 11:04:33;;;;;;;11.68;4.78;;;;;;;17.45;71.82;102060.38;5050761;28;20430;-82
2022/10/04 11:07:09;;;;;;;7.38;4.68;;;;;;;17.51;70.95;102059.78;5050745;28;20037;-82
2022/10/04 11:09:55;;;;;;;15.23;5.85;;;;;;;17.53;73.16;102056.94;5050271;28;20104;-83
2022/10/04 11:12:40;;;;;;;8.02;5.10;;;;;;;17.42;71.34;102058.88;5066017;28;20150;-84
2022/10/04 11:15:38;;;;;;;11.48;5.18;;;;;;;17.65;71.91;102068.31;5049965;28;20521;-84
2022/10/04 11:18:07;;;;;;;11.75;5.45;;;;;;;17.69;74.90;102054.38;5050187;28;20024;-81
2022/10/04 11:20:47;;;;;;;28.52;6.45;;;;;;;17.54;72.13;102062.16;5050662;28;20044;-82
2022/10/04 11:23:36;;;;;;;17.83;6.35;;;;;;;17.38;73.05;102056.66;5050481;28;20112;-82
2022/10/04 11:26:07;;;;;;;9.10;6.22;;;;;;;17.32;73.55;102059.97;5050436;28;20112;-81
2022/10/04 11:28:45;;;;;;;;;;;;;;;17.51;76.49;102057.09;5050328;28;20075;-81
2022/10/04 11:31:41;;;;;;;20.73;6.72;;;;;;;17.55;77.02;102060.31;5049808;28;20306;-82
2022/10/04 11:34:31;;;;;;;24.02;7.72;;;;;;;17.15;76.75;102058.94;5049535;28;20029;-81
2022/10/04 11:37:06;;;;;;;14.75;7.57;;;;;;;17.04;78.06;102060.84;5050460;28;20119;-81
2022/10/04 11:39:43;;;;;;;18.85;8.00;;;;;;;16.89;81.19;102048.94;5050317;28;20060;-80
2022/10/04 11:42:39;;;;;;;15.60;8.23;;;;;;;16.92;82.67;102048.63;5049387;28;20491;-80
2022/10/04 11:45:54;;;;;;;17.05;9.05;;;;;;;16.94;83.47;102053.84;5050236;28;20176;-81
2022/10/04 11:48:43;;;;;;;15.55;8.40;;;;;;;17.09;82.56;102050.50;5037271;28;20037;-82
2022/10/04 11:51:26;;;;;;;16.08;8.23;;;;;;;17.07;81.05;102040.88;5041442;28;20065;-81
2022/10/04 11:54:16;;;;;;;15.10;9.15;;;;;;;16.79;82.20;102040.03;5049728;28;20037;-78
2022/10/04 11:57:05;;;;;;;17.58;8.93;;;;;;;16.57;82.30;102026.03;5049696;28;20104;-81
2022/10/04 11:59:44;;;;;;;16.98;9.13;;;;;;;16.48;82.94;102019.72;5050025;28;20052;-82
2022/10/04 12:02:22;;;;;;;14.82;8.70;;;;;;;16.54;84.53;102023.63;5049627;28;20075;-81
2022/10/04 12:04:56;;;;;;;11.32;7.70;;;;;;;16.57;84.66;102020.66;5049747;28;20036;-80
2022/10/04 12:07:39;;;;;;;15.25;8.23;;;;;;;16.71;84.06;102017.44;5049715;28;20108;-81
2022/10/04 12:10:11;;;;;;;15.80;8.00;;;;;;;16.83;82.01;102018.09;5049139;28;20052;-81
2022/10/04 12:12:39;;;;;;;;;;;;;;;16.94;80.11;102010.84;5065588;28;20444;-81
2022/10/04 12:15:26;;;;;;;12.65;7.60;;;;;;;17.04;81.48;102019.69;5050055;28;19909;-81